ADDS METAR Data INFO
IDs: Format: Raw Decoded Include TAF

Data at: 0337 UTC 19 Feb 2018

KENL 190315Z AUTO 15010KT 10SM OVC025 09/03 A2998 RMK AO2 T00910025
KENL 190255Z AUTO 14008G15KT 10SM OVC027 09/03 A2997 RMK AO2 T00920025
KENL 190235Z AUTO 14008KT 10SM OVC029 09/03 A2999 RMK AO2 T00900025
KENL 190215Z AUTO 14011KT 10SM OVC033 09/03 A2999 RMK AO2 T00920025
KENL 190155Z AUTO 14010KT 10SM OVC033 09/03 A3000 RMK AO2 T00910025
KENL 190135Z AUTO 14008KT 10SM SCT037 OVC044 09/03 A3001 RMK AO2 T00910026
KENL 190115Z AUTO 14009KT 10SM OVC044 09/03 A3001 RMK AO2 T00880028
KENL 190055Z AUTO 14007KT 10SM OVC046 09/03 A3002 RMK AO2 T00890030
KENL 190035Z AUTO 14008KT 10SM BKN048 09/03 A3001 RMK AO2 T00860029
KENL 190015Z AUTO 14010KT 10SM CLR 09/03 A3002 RMK AO2 T00850028
KENL 182355Z AUTO 12007KT 10SM CLR 09/03 A3001 RMK AO2 T00860028 10114 20086
KENL 182335Z AUTO 13009KT 10SM CLR 09/03 A3002 RMK AO2 T00870030
KENL 182315Z AUTO 13009KT 10SM CLR 09/03 A3003 RMK AO2 T00900031
KENL 182255Z AUTO 11006KT 10SM CLR 10/02 A3004 RMK AO2 T00970018
KENL 182235Z AUTO 15009KT 10SM CLR 10/02 A3006 RMK AO2 T01000017
KENL 182215Z AUTO 14011KT 10SM CLR 10/01 A3006 RMK AO2 T01000012
KENL 182155Z AUTO 14012G20KT 10SM CLR 11/01 A3006 RMK AO2 T01060007
KENL 182135Z AUTO 15015G21KT 10SM CLR 11/01 A3008 RMK AO2 T01080010
KENL 182115Z AUTO 15012G17KT 10SM CLR 11/01 A3008 RMK AO2 T01100009
KENL 182055Z AUTO 14011KT 10SM CLR 11/01 A3009 RMK AO2 T01110009
KENL 182035Z AUTO 16015G19KT 10SM CLR 11/01 A3010 RMK AO2 T01110007
KENL 182015Z AUTO 15012G20KT 10SM CLR 11/01 A3011 RMK AO2 T01130008
KENL 181955Z AUTO 15015KT 10SM CLR 11/01 A3012 RMK AO2 T01070007
KENL 181935Z AUTO 15014KT 10SM CLR 11/01 A3013 RMK AO2 T01050013
KENL 181915Z AUTO 13011G16KT 10SM CLR 10/01 A3015 RMK AO2 T00990014
KENL 181855Z AUTO 14009G14KT 10SM CLR 10/02 A3017 RMK AO2 T01000016
KENL 181835Z AUTO 16010G17KT 10SM CLR 09/01 A3020 RMK AO2 T00940009
KENL 181815Z AUTO 14012G19KT 10SM CLR 09/00 A3021 RMK AO2 T00890001
KENL 181755Z AUTO 14015KT 10SM CLR 09/01 A3022 RMK AO2 T00900005 10091 21032
KENL 181735Z AUTO 14009KT 10SM CLR 09/01 A3024 RMK AO2 T00850009
KENL 181715Z AUTO 13012G15KT 10SM CLR 08/01 A3025 RMK AO2 T00840011
KENL 181655Z AUTO 13010KT 10SM CLR 08/01 A3026 RMK AO2 T00810013
KENL 181635Z AUTO 15012KT 10SM CLR 07/01 A3026 RMK AO2 T00720012
KENL 181615Z AUTO 13009KT 10SM CLR 06/01 A3026 RMK AO2 T00570014
KENL 181555Z AUTO 14008KT 10SM CLR 05/01 A3027 RMK AO2 T00480013
KENL 181535Z AUTO 13007KT 10SM CLR 04/02 A3027 RMK AO2 T00430022
KENL 181515Z AUTO 12005KT 10SM CLR 04/02 A3027 RMK AO2 T00350018
KENL 181455Z AUTO 13007KT 10SM CLR 03/01 A3028 RMK AO2 T00300013
KENL 181435Z AUTO 13007KT 10SM CLR 02/01 A3028 RMK AO2 T00230010
KENL 181415Z AUTO 13005KT 10SM CLR 02/01 A3028 RMK AO2 T00160006
KENL 181355Z AUTO 13004KT 7SM CLR 01/00 A3029 RMK AO2 T00100004
KENL 181335Z AUTO 13004KT 7SM CLR 00/00 A3030 RMK AO2 T00001001
KENL 181315Z AUTO 13004KT 5SM BR CLR 00/00 A3029 RMK AO2 T10041005
KENL 181255Z AUTO 13004KT 5SM BR CLR M02/M02 A3029 RMK AO2 T10211023
KENL 181235Z AUTO 00000KT 7SM CLR M03/M03 A3030 RMK AO2 T10301031
KENL 181215Z AUTO 00000KT 7SM CLR M03/M03 A3030 RMK AO2 T10301032
KENL 181155Z AUTO 11003KT 7SM CLR M03/M03 A3029 RMK AO2 70009 T10301032 10000 21033
KENL 181135Z AUTO 12003KT 7SM CLR M03/M03 A3029 RMK AO2 T10301031
KENL 181115Z AUTO 10003KT 5SM BR CLR M03/M03 A3030 RMK AO2 T10301031
KENL 181055Z AUTO 00000KT 5SM BR CLR M03/M03 A3030 RMK AO2 T10301031
KENL 181035Z AUTO 00000KT 7SM CLR M02/M02 A3030 RMK AO2 T10221024
KENL 181015Z AUTO 00000KT 5SM BR CLR M03/M03 A3030 RMK AO2 T10301031
KENL 180955Z AUTO 16003KT 5SM BR CLR M03/M03 A3030 RMK AO2 T10281029
KENL 180940Z AUTO 00000KT 4SM BR CLR M02/M02 A3030 RMK AO2 T10231023
KENL 180915Z AUTO 18003KT 5SM BR CLR M02/M02 A3029 RMK AO2 T10211022
KENL 180855Z AUTO 19004KT 5SM BR CLR M02/M02 A3029 RMK AO2 T10211022
KENL 180835Z AUTO 18004KT 5SM BR CLR M02/M02 A3028 RMK AO2 T10201020
KENL 180815Z AUTO 18003KT 5SM BR CLR M02/M02 A3028 RMK AO2 T10191020
KENL 180755Z AUTO 19004KT 5SM BR CLR M02/M02 A3028 RMK AO2 T10171018
KENL 180735Z AUTO 00000KT 7SM CLR M01/M02 A3027 RMK AO2 T10151017
KENL 180715Z AUTO 00000KT 7SM CLR M01/M01 A3025 RMK AO2 T10121013
KENL 180655Z AUTO 00000KT 10SM CLR 00/00 A3024 RMK AO2 T10021002
KENL 180635Z AUTO 00000KT 10SM CLR 00/00 A3024 RMK AO2 T10031004
KENL 180615Z AUTO 00000KT 7SM CLR M01/M01 A3025 RMK AO2 T10101010
KENL 180555Z AUTO 00000KT 3SM BR CLR M01/M01 A3024 RMK AO2 T10141014 10050 21018 400511018
KENL 180535Z AUTO 00000KT 3SM BR CLR M01/M01 A3024 RMK AO2 T10101010
KENL 180515Z AUTO 00000KT 1SM BR VV007 M01/M01 A3024 RMK AO2 VIS 1/2V1 3/4 T10131013
KENL 180455Z AUTO 00000KT 2 1/2SM BR CLR M01/M01 A3024 RMK AO2 T10121013
KENL 180435Z AUTO 00000KT 5SM BR CLR 00/00 A3023 RMK AO2 T00001001
KENL 180415Z AUTO 00000KT 7SM CLR 00/00 A3024 RMK AO2 T00000000
KENL 180355Z AUTO 21005KT 5SM BR CLR 00/00 A3023 RMK AO2 T00000000
KENL 180335Z AUTO 26003KT 7SM CLR 01/01 A3023 RMK AO2 T00070005
KENL 180315Z AUTO 22004KT 7SM CLR 01/01 A3021 RMK AO2 T00070005
KENL 180255Z AUTO 24003KT 7SM CLR 01/01 A3020 RMK AO2 T00070005
KENL 180235Z AUTO 26003KT 10SM CLR 02/01 A3019 RMK AO2 T00150011
KENL 180215Z AUTO 25003KT 10SM CLR 01/01 A3017 RMK AO2 T00140009
KENL 180155Z AUTO 24005KT 10SM CLR 02/01 A3016 RMK AO2 T00190013
KENL 180135Z AUTO 23004KT 10SM CLR 02/02 A3016 RMK AO2 T00210015
KENL 180115Z AUTO 25005KT 10SM CLR 02/02 A3015 RMK AO2 T00220015
KENL 180055Z AUTO 28005KT 10SM CLR 03/02 A3014 RMK AO2 T00310018
KENL 180035Z AUTO 29006KT 10SM SCT023 04/02 A3013 RMK AO2 T00360021
KENL 180015Z AUTO 29009KT 10SM SCT017 BKN023 05/03 A3013 RMK AO2 T00450026
KENL 172355Z AUTO 30010KT 10SM BKN017 OVC023 05/04 A3013 RMK AO2 60001 T00500035 10051 20018
KENL 172335Z AUTO 28009KT 10SM BKN013 OVC022 05/04 A3011 RMK AO2 T00510038
KENL 172315Z AUTO 28010G17KT 10SM OVC013 05/04 A3010 RMK AO2 T00510040
KENL 172255Z AUTO 26009KT 10SM OVC015 05/04 A3008 RMK AO2 T00480040
KENL 172235Z AUTO 26008KT 7SM SCT010 OVC016 05/04 A3007 RMK AO2 T00480041
KENL 172215Z AUTO 25008KT 7SM OVC008 04/04 A3006 RMK AO2 T00440038
KENL 172155Z AUTO 23009KT 5SM BR OVC006 04/04 A3005 RMK AO2 T00400037
KENL 172135Z AUTO 23006KT 4SM BR OVC004 04/04 A3004 RMK AO2 T00370036
KENL 172115Z AUTO 21006KT 2SM BR OVC004 04/03 A3003 RMK AO2 T00350033
KENL 172055Z AUTO 21008KT 1 1/4SM -RA OVC004 03/03 A3002 RMK AO2 P0001 60001 T00330032
KENL 172035Z AUTO 21008KT 1 1/4SM -DZ OVC004 03/03 A3002 RMK AO2 P0001 T00300030
KENL 172015Z AUTO 19007KT 1SM RA OVC004 03/03 A3001 RMK AO2 T00270026
KENL 171955Z AUTO 19007KT 1 1/2SM BR BKN006 BKN009 OVC023 03/02 A3001 RMK AO2 T00250021
KENL 171935Z AUTO 19007KT 5SM BR SCT006 SCT014 OVC025 03/02 A3001 RMK AO2 T00250020
KENL 171915Z AUTO 17006KT 5SM BR SCT006 BKN025 OVC033 02/02 A3001 RMK AO2 T00220017
KENL 171855Z AUTO 17008KT 5SM BR BKN006 BKN025 OVC031 02/02 A3002 RMK AO2 T00220017
KENL 171835Z AUTO 17007KT 5SM BR BKN006 OVC029 02/02 A3002 RMK AO2 T00230017
KENL 171815Z AUTO 16004KT 7SM OVC006 02/01 A3004 RMK AO2 T00200014
KENL 171755Z AUTO 16007KT 5SM BR OVC006 02/01 A3005 RMK AO2 P0008 60008 T00180012 10018 20000
KENL 171735Z AUTO 15005KT 4SM BR OVC006 02/01 A3006 RMK AO2 P0007 T00150010
KENL 171715Z AUTO 14004KT 4SM -RA BKN004 OVC009 01/01 A3007 RMK AO2 P0003 T00110008
KENL 171655Z AUTO 14005KT 3SM -RA OVC005 01/01 A3008 RMK AO2 T00100006
KENL 171635Z AUTO 13006KT 2SM UP OVC003 01/01 A3006 RMK AO2 T00070005
KENL 171615Z AUTO 14004KT 3/4SM -SN OVC003 01/01 A3008 RMK AO2 T00060005
KENL 171555Z AUTO 14007KT 3/4SM -SN BKN003 OVC011 01/00 A3007 RMK AO2 T00050003